FMCZ Airport Information

Runway Information
Runway 16 Length 6330 ft width 92 ft
Elevation 10 ft Threshold 250 ft Heading 150
Runway 34 Length 6330 ft Width 92 ft
Elevation 23 ft Threshold 0 ft Heading 330
Airport Frequencies
Type AFIS Name AFIS Frequency 119.2 MHZ
Airport Navaids
Type VOR-DME Name Dzaoudzi Pamandzi Frequency 113500 KHZ
Type NDB Name Dzaoudzi Pamandzi Frequency 341 KHZ
Airport Weather Information & NOTAM
ADDS - METARS form results

(1121 UTC 24 January 2019)
Data provider http://aviationweather.gov/metar/data/
 
METAR text: FMCZ 241100Z AUTO 36011KT 310V050 9999 BKN024 BKN030 BKN043 31/25 Q1011 NOSIG
Conditions at: FMCZ (DZAOUDZI/PAMANZI, KM) observed 1100 UTC 24 January 2019
Temperature: 31.0°C (88°F)
Dewpoint: 25.0°C (77°F) [RH = 71%]
Pressure (altimeter): 29.85 inches Hg (1011.0 mb)
Winds: from the N (360 degrees) at 13 MPH (11 knots; 5.7 m/s)
Visibility: 6 or more miles (10+ km)
Ceiling: 2400 feet AGL
Clouds: broken clouds at 2400 feet AGL
broken clouds at 3000 feet AGL
broken clouds at 4300 feet AGL
Weather: no significant weather observed at this time

METAR text: FMCZ 241030Z AUTO 36011KT 310V050 9999 BKN024 BKN033 32/25 Q1011 NOSIG
Conditions at: FMCZ (DZAOUDZI/PAMANZI, KM) observed 1030 UTC 24 January 2019
Temperature: 32.0°C (90°F)
Dewpoint: 25.0°C (77°F) [RH = 67%]
Pressure (altimeter): 29.85 inches Hg (1011.0 mb)
Winds: from the N (360 degrees) at 13 MPH (11 knots; 5.7 m/s)
Visibility: 6 or more miles (10+ km)
Ceiling: 2400 feet AGL
Clouds: broken clouds at 2400 feet AGL
broken clouds at 3300 feet AGL
Weather: no significant weather observed at this time

Forecast for: AMD
Text: TAF AMD FMCZ 241050Z 2410/2506 36012KT 9999 SCT025
Forecast period: 1000 UTC 24 January 2019 to 0600 UTC 25 January 2019
Forecast type: FROM: standard forecast or significant change
Winds: from the N (360 degrees) at 14 MPH (12 knots; 6.2 m/s)
Visibility: 6 or more miles 10+ km)
Ceiling: at least 12,000 feet AGL
Clouds: scattered clouds at 2500 feet AGL
Weather: no significant weather forecast for this period